createdAt,value
2023-05-14T00:02:22.886Z,10.18
2023-05-14T00:04:58.146Z,10.68
2023-05-14T00:07:34.565Z,10.98
2023-05-14T00:10:08.794Z,11.32
2023-05-14T00:12:36.815Z,11.18
2023-05-14T00:15:05.017Z,11.45
2023-05-14T00:17:39.202Z,11.60
2023-05-14T00:23:25.168Z,11.35
2023-05-14T00:25:53.407Z,11.75
2023-05-14T00:28:36.848Z,11.98
2023-05-14T00:31:24.085Z,13.43
2023-05-14T00:33:55.373Z,11.65
2023-05-14T00:39:51.053Z,11.55
2023-05-14T00:42:23.132Z,11.75
2023-05-14T00:44:51.277Z,10.95
2023-05-14T00:47:51.466Z,10.60
2023-05-14T00:50:22.147Z,10.02
2023-05-14T00:52:53.750Z,10.65
2023-05-14T00:58:14.918Z,10.48
2023-05-14T01:01:01.668Z,9.13
2023-05-14T01:03:34.010Z,11.25
2023-05-14T01:06:25.393Z,11.55
2023-05-14T01:09:15.518Z,9.40
2023-05-14T01:12:01.294Z,9.45
2023-05-14T01:14:32.397Z,10.43
2023-05-14T01:17:08.297Z,10.27
2023-05-14T01:19:54.746Z,11.45
2023-05-14T01:22:36.302Z,9.90
2023-05-14T01:28:25.603Z,11.60
2023-05-14T01:30:58.288Z,11.25
2023-05-14T01:33:27.443Z,10.13
2023-05-14T01:35:59.962Z,8.98
2023-05-14T01:38:39.327Z,8.35
2023-05-14T01:41:34.384Z,9.73
2023-05-14T01:44:03.602Z,8.82
2023-05-14T01:46:55.373Z,8.05
2023-05-14T01:52:11.606Z,8.03
2023-05-14T01:55:07.905Z,8.50
2023-05-14T01:57:44.928Z,9.60
2023-05-14T02:00:16.367Z,8.90
2023-05-14T02:05:43.629Z,8.55
2023-05-14T02:11:29.997Z,8.30
2023-05-14T02:13:57.898Z,9.10
2023-05-14T02:16:28.012Z,9.55
2023-05-14T02:19:03.366Z,9.23
2023-05-14T02:21:48.763Z,8.40
2023-05-14T02:24:16.942Z,8.18
2023-05-14T02:26:50.148Z,8.52
2023-05-14T02:29:29.389Z,8.82
2023-05-14T02:31:57.523Z,8.35
2023-05-14T02:34:35.925Z,8.15
2023-05-14T02:37:19.453Z,8.90
2023-05-14T02:39:59.089Z,8.18
2023-05-14T02:42:29.372Z,9.57
2023-05-14T02:44:59.692Z,10.25
2023-05-14T02:47:33.049Z,9.90
2023-05-14T02:50:03.173Z,8.88
2023-05-14T02:52:57.286Z,8.88
2023-05-14T02:56:06.975Z,8.75
2023-05-14T02:58:36.350Z,7.88
2023-05-14T03:01:10.200Z,8.35
2023-05-14T03:03:42.008Z,8.07
2023-05-14T03:06:24.937Z,8.70
2023-05-14T03:08:54.842Z,8.90
2023-05-14T03:11:45.977Z,8.35
2023-05-14T03:14:13.927Z,7.68
2023-05-14T03:16:51.713Z,8.50
2023-05-14T03:19:21.819Z,8.25
2023-05-14T03:21:59.188Z,8.45
2023-05-14T03:24:36.320Z,9.52
2023-05-14T03:27:06.672Z,7.80
2023-05-14T03:29:54.043Z,8.90
2023-05-14T03:32:27.274Z,9.07
2023-05-14T03:35:02.667Z,8.93
2023-05-14T03:40:43.423Z,9.20
2023-05-14T03:43:11.699Z,9.07
2023-05-14T03:45:58.029Z,9.60
2023-05-14T03:48:26.175Z,8.85
2023-05-14T03:51:05.630Z,9.43
2023-05-14T03:53:47.056Z,9.10
2023-05-14T03:56:38.263Z,10.25
2023-05-14T03:59:10.406Z,9.68
2023-05-14T04:01:52.662Z,9.55
2023-05-14T04:04:20.733Z,9.05
2023-05-14T04:07:10.748Z,8.95
2023-05-14T04:09:43.897Z,9.40
2023-05-14T04:12:25.091Z,9.10
2023-05-14T04:14:53.438Z,8.73
2023-05-14T04:17:28.875Z,9.40
2023-05-14T04:20:15.330Z,9.07
2023-05-14T04:23:01.071Z,9.65
2023-05-14T04:25:40.628Z,8.48
2023-05-14T04:28:13.784Z,9.02
2023-05-14T04:30:47.182Z,10.50
2023-05-14T04:33:26.780Z,9.80
2023-05-14T04:35:57.300Z,10.20
2023-05-14T04:38:43.982Z,10.10
2023-05-14T04:41:14.327Z,9.77
2023-05-14T04:43:53.159Z,9.18
2023-05-14T04:46:30.618Z,9.15
2023-05-14T04:48:59.159Z,10.00
2023-05-14T04:51:31.417Z,10.48
2023-05-14T04:54:00.552Z,10.75
2023-05-14T04:56:45.961Z,10.00
2023-05-14T04:59:14.223Z,10.93
2023-05-14T05:01:47.352Z,10.90
2023-05-14T05:04:20.947Z,12.18
2023-05-14T05:06:55.206Z,12.80
2023-05-14T05:09:28.238Z,13.10
2023-05-14T05:11:58.441Z,13.57
2023-05-14T05:14:26.828Z,12.98
2023-05-14T05:17:12.603Z,13.00
2023-05-14T05:20:00.165Z,13.63
2023-05-14T05:22:30.580Z,12.38
2023-05-14T05:25:07.994Z,13.23
2023-05-14T05:27:48.905Z,13.13
2023-05-14T05:30:18.076Z,11.77
2023-05-14T05:32:51.529Z,10.80
2023-05-14T05:35:29.915Z,11.55
2023-05-14T05:38:10.419Z,11.15
2023-05-14T05:40:57.913Z,10.57
2023-05-14T05:43:38.128Z,10.23
2023-05-14T05:46:08.562Z,11.35
2023-05-14T05:48:43.649Z,9.90
2023-05-14T05:51:15.876Z,9.68
2023-05-14T05:54:03.526Z,10.32
2023-05-14T05:56:32.637Z,8.98
2023-05-14T05:59:20.094Z,9.00
2023-05-14T06:01:49.638Z,9.23
2023-05-14T06:04:20.223Z,8.18
2023-05-14T06:07:04.737Z,9.13
2023-05-14T06:09:48.341Z,8.35
2023-05-14T06:12:21.524Z,8.63
2023-05-14T06:14:59.570Z,8.35
2023-05-14T06:17:30.974Z,10.63
2023-05-14T06:22:28.794Z,8.70
2023-05-14T06:25:16.303Z,9.73
2023-05-14T06:28:02.776Z,10.60
2023-05-14T06:30:31.715Z,10.07
2023-05-14T06:32:59.800Z,11.63
2023-05-14T06:35:38.456Z,13.52
2023-05-14T06:38:18.660Z,12.20
2023-05-14T06:40:57.975Z,12.82
2023-05-14T06:43:29.219Z,15.13
2023-05-14T06:46:05.404Z,15.18
2023-05-14T06:48:50.223Z,14.40
2023-05-14T06:51:19.631Z,15.82
2023-05-14T06:54:06.967Z,14.23
2023-05-14T06:56:37.336Z,14.63
2023-05-14T06:59:05.381Z,15.13
2023-05-14T07:04:59.661Z,15.27
2023-05-14T07:07:27.659Z,15.18
2023-05-14T07:10:15.022Z,16.00
2023-05-14T07:12:45.692Z,15.70
2023-05-14T07:15:38.274Z,14.32
2023-05-14T07:18:20.386Z,15.50
2023-05-14T07:24:05.757Z,15.07
2023-05-14T07:26:38.129Z,14.48
2023-05-14T07:29:28.071Z,16.27
2023-05-14T07:32:03.270Z,15.77
2023-05-14T07:34:51.755Z,16.55
2023-05-14T07:40:37.802Z,16.15
2023-05-14T07:43:05.778Z,16.13
2023-05-14T07:45:33.837Z,16.65
2023-05-14T07:48:12.932Z,16.83
2023-05-14T07:51:03.487Z,17.90
2023-05-14T07:53:33.746Z,16.58
2023-05-14T07:56:02.674Z,16.33
2023-05-14T07:58:42.726Z,16.40
2023-05-14T08:01:14.300Z,16.10
2023-05-14T08:03:46.646Z,16.67
2023-05-14T08:06:29.643Z,15.57
2023-05-14T08:09:01.105Z,16.42
2023-05-14T08:13:58.786Z,15.60
2023-05-14T08:16:31.927Z,14.50
2023-05-14T08:19:04.000Z,16.75
2023-05-14T08:21:43.348Z,16.25
2023-05-14T08:24:26.924Z,15.80
2023-05-14T08:26:54.857Z,16.58
2023-05-14T08:29:32.213Z,15.90
2023-05-14T08:32:22.202Z,16.35
2023-05-14T08:35:04.559Z,16.90
2023-05-14T08:37:32.859Z,15.98
2023-05-14T08:40:13.451Z,15.88
2023-05-14T08:42:45.145Z,15.60
2023-05-14T08:45:23.502Z,16.52
2023-05-14T08:47:53.139Z,14.93
2023-05-14T08:50:23.521Z,15.68
2023-05-14T08:53:01.322Z,14.63
2023-05-14T08:55:31.244Z,15.88
2023-05-14T08:58:00.329Z,15.63
2023-05-14T09:03:42.237Z,16.00
2023-05-14T09:06:10.614Z,15.15
2023-05-14T09:08:40.942Z,15.45
2023-05-14T09:11:17.153Z,14.98
2023-05-14T09:13:45.262Z,14.07
2023-05-14T09:16:38.354Z,13.65
2023-05-14T09:19:23.848Z,13.93
2023-05-14T09:22:30.149Z,13.00
2023-05-14T09:25:06.675Z,12.80
2023-05-14T09:27:38.122Z,13.32
2023-05-14T09:32:47.304Z,12.80
2023-05-14T09:35:18.830Z,13.60
2023-05-14T09:37:50.165Z,12.70
2023-05-14T09:40:31.914Z,12.82
2023-05-14T09:43:31.092Z,13.10
2023-05-14T09:46:10.791Z,13.10
2023-05-14T09:48:38.981Z,12.85
2023-05-14T09:51:07.236Z,12.25
2023-05-14T09:53:45.978Z,13.10
2023-05-14T09:56:14.974Z,13.27
2023-05-14T09:58:44.141Z,12.48
2023-05-14T10:01:37.334Z,13.82
2023-05-14T10:04:25.398Z,12.63
2023-05-14T10:06:54.836Z,12.88
2023-05-14T10:09:27.899Z,13.25
2023-05-14T10:12:07.127Z,12.25
2023-05-14T10:14:56.518Z,13.20
2023-05-14T10:17:28.049Z,13.50
2023-05-14T10:20:25.413Z,12.70
2023-05-14T10:22:58.111Z,14.38
2023-05-14T10:25:29.467Z,13.90
2023-05-14T10:28:05.048Z,13.90
2023-05-14T10:30:33.550Z,13.88
2023-05-14T10:33:08.722Z,14.38
2023-05-14T10:35:56.034Z,13.65
2023-05-14T10:38:29.356Z,14.77
2023-05-14T10:41:26.428Z,14.60
2023-05-14T10:44:14.019Z,16.42
2023-05-14T10:46:54.777Z,16.27
2023-05-14T10:49:42.778Z,17.42
2023-05-14T10:55:29.922Z,17.17
2023-05-14T10:58:00.373Z,16.40
2023-05-14T11:01:03.335Z,15.90
2023-05-14T11:03:46.606Z,16.00
2023-05-14T11:06:17.368Z,15.60
2023-05-14T11:08:48.554Z,14.33
2023-05-14T11:11:20.664Z,13.15
2023-05-14T11:13:49.544Z,14.20
2023-05-14T11:16:23.690Z,13.20
2023-05-14T11:19:03.078Z,12.77
2023-05-14T11:21:39.226Z,12.27
2023-05-14T11:24:08.967Z,11.43
2023-05-14T11:26:45.230Z,11.48
2023-05-14T11:29:27.794Z,11.20
2023-05-14T11:32:09.317Z,10.98
2023-05-14T11:37:18.063Z,11.07
2023-05-14T11:39:57.951Z,11.20
2023-05-14T11:42:35.342Z,12.13
2023-05-14T11:45:04.680Z,11.43
2023-05-14T11:47:48.159Z,11.27
2023-05-14T11:50:18.176Z,9.50
2023-05-14T11:52:54.377Z,8.85
2023-05-14T11:55:37.811Z,7.88
2023-05-14T11:58:37.387Z,8.30
2023-05-14T12:01:21.303Z,7.30
2023-05-14T12:03:49.575Z,6.70
2023-05-14T12:06:32.183Z,7.88
2023-05-14T12:09:13.608Z,7.45
2023-05-14T12:11:54.350Z,8.25
2023-05-14T12:14:25.873Z,7.53
2023-05-14T12:17:03.527Z,6.22
2023-05-14T12:19:49.266Z,5.28
2023-05-14T12:22:35.108Z,6.43
2023-05-14T12:25:20.747Z,7.10
2023-05-14T12:28:19.751Z,8.40
2023-05-14T12:31:04.087Z,6.10
2023-05-14T12:33:48.710Z,6.65
2023-05-14T12:39:32.724Z,4.63
2023-05-14T12:42:00.920Z,4.38
2023-05-14T12:44:49.669Z,4.30
2023-05-14T12:47:18.686Z,4.25
2023-05-14T12:49:53.994Z,4.18
2023-05-14T12:52:38.729Z,4.38
2023-05-14T12:55:12.198Z,4.30
2023-05-14T12:57:43.451Z,4.03
2023-05-14T13:03:44.827Z,4.60
2023-05-14T13:06:31.170Z,4.53
2023-05-14T13:09:03.853Z,5.20
2023-05-14T13:11:36.360Z,4.63
2023-05-14T13:14:05.159Z,4.38
2023-05-14T13:16:33.750Z,4.57
2023-05-14T13:19:02.093Z,5.35
2023-05-14T13:21:30.367Z,4.65
2023-05-14T13:24:05.725Z,4.65
2023-05-14T13:26:37.729Z,4.97
2023-05-14T13:29:06.928Z,4.32
2023-05-14T13:31:37.179Z,4.25
2023-05-14T13:34:05.708Z,3.78
2023-05-14T13:36:41.162Z,4.15
2023-05-14T13:39:16.398Z,4.65
2023-05-14T13:41:52.286Z,5.20
2023-05-14T13:44:23.727Z,4.35
2023-05-14T13:49:39.524Z,4.38
2023-05-14T13:52:15.458Z,3.70
2023-05-14T13:54:44.394Z,4.20
2023-05-14T13:57:14.948Z,3.88
2023-05-14T13:59:47.462Z,4.40
2023-05-14T14:02:16.714Z,4.30
2023-05-14T14:04:54.142Z,3.80
2023-05-14T14:07:32.512Z,3.83
2023-05-14T14:10:27.548Z,4.10
2023-05-14T14:13:02.948Z,3.45
2023-05-14T14:15:34.993Z,4.40
2023-05-14T14:18:06.400Z,3.42
2023-05-14T14:20:38.647Z,4.55
2023-05-14T14:23:08.321Z,3.80
2023-05-14T14:25:36.697Z,3.50
2023-05-14T14:28:09.478Z,4.00
2023-05-14T14:30:43.654Z,4.00
2023-05-14T14:33:41.097Z,3.83
2023-05-14T14:36:13.404Z,3.70
2023-05-14T14:39:12.753Z,3.83
2023-05-14T14:41:48.940Z,3.90
2023-05-14T14:44:23.093Z,3.50
2023-05-14T14:46:51.292Z,4.22
2023-05-14T14:49:24.194Z,3.78
2023-05-14T14:51:56.583Z,4.00
2023-05-14T14:54:30.996Z,3.60
2023-05-14T14:57:07.470Z,3.97
2023-05-14T14:59:40.863Z,3.70
2023-05-14T15:02:15.235Z,3.75
2023-05-14T15:04:54.896Z,3.60
2023-05-14T15:07:37.274Z,3.35
2023-05-14T15:10:11.156Z,4.30
2023-05-14T15:12:39.424Z,3.70
2023-05-14T15:15:10.978Z,3.72
2023-05-14T15:17:44.284Z,3.25
2023-05-14T15:20:13.799Z,4.20
2023-05-14T15:22:43.478Z,3.67
2023-05-14T15:25:13.681Z,3.67
2023-05-14T15:27:57.061Z,2.80
2023-05-14T15:30:28.241Z,2.80
2023-05-14T15:33:08.704Z,3.03
2023-05-14T15:35:51.213Z,2.55
2023-05-14T15:38:28.849Z,2.72
2023-05-14T15:40:56.938Z,3.22
2023-05-14T15:43:43.448Z,3.20
2023-05-14T15:46:12.664Z,2.80
2023-05-14T15:48:46.005Z,3.13
2023-05-14T15:51:24.408Z,2.80
2023-05-14T15:53:58.663Z,2.90
2023-05-14T15:56:37.906Z,2.60
2023-05-14T15:59:12.106Z,2.70
2023-05-14T16:01:43.444Z,2.47
2023-05-14T16:07:11.615Z,2.83
2023-05-14T16:12:57.998Z,3.05
2023-05-14T16:15:41.411Z,3.28
2023-05-14T16:18:26.562Z,3.35
2023-05-14T16:20:55.267Z,3.42
2023-05-14T16:23:26.497Z,3.88
2023-05-14T16:26:17.688Z,3.88
2023-05-14T16:28:58.407Z,3.60
2023-05-14T16:32:04.732Z,4.03
2023-05-14T16:34:40.860Z,4.40
2023-05-14T16:37:18.374Z,4.80
2023-05-14T16:39:53.707Z,5.03
2023-05-14T16:42:38.316Z,5.35
2023-05-14T16:45:28.068Z,5.82
2023-05-14T16:47:58.270Z,5.68
2023-05-14T16:53:40.563Z,6.88
2023-05-14T16:56:26.840Z,5.75
2023-05-14T16:59:13.805Z,6.40
2023-05-14T17:01:51.372Z,7.22
2023-05-14T17:04:26.406Z,6.55
2023-05-14T17:07:01.119Z,7.97
2023-05-14T17:09:37.234Z,7.60
2023-05-14T17:12:07.374Z,7.00
2023-05-14T17:14:35.337Z,7.40
2023-05-14T17:17:13.641Z,8.60
2023-05-14T17:20:07.162Z,7.40
2023-05-14T17:22:35.635Z,7.43
2023-05-14T17:25:16.783Z,7.47
2023-05-14T17:28:06.441Z,9.35
2023-05-14T17:30:45.808Z,9.48
2023-05-14T17:33:28.509Z,8.90
2023-05-14T17:36:27.906Z,8.57
2023-05-14T17:38:57.391Z,9.35
2023-05-14T17:41:43.744Z,8.73
2023-05-14T17:44:47.892Z,10.85
2023-05-14T17:47:17.151Z,8.93
2023-05-14T17:49:45.336Z,8.15
2023-05-14T17:52:15.230Z,9.15
2023-05-14T17:54:44.065Z,9.82
2023-05-14T17:57:19.656Z,8.98
2023-05-14T17:59:49.806Z,12.02
2023-05-14T18:02:34.201Z,13.02
2023-05-14T18:05:04.494Z,9.18
2023-05-14T18:07:37.142Z,8.77
2023-05-14T18:10:06.637Z,8.40
2023-05-14T18:12:34.807Z,8.80
2023-05-14T18:15:03.893Z,11.75
2023-05-14T18:17:58.414Z,9.95
2023-05-14T18:20:26.613Z,9.15
2023-05-14T18:23:13.847Z,10.20
2023-05-14T18:25:45.086Z,10.23
2023-05-14T18:28:16.994Z,8.60
2023-05-14T18:30:57.643Z,8.50
2023-05-14T18:33:42.357Z,7.97
2023-05-14T18:36:43.955Z,8.52
2023-05-14T18:39:31.135Z,10.07
2023-05-14T18:42:00.759Z,9.23
2023-05-14T18:44:31.061Z,12.00
2023-05-14T18:47:01.124Z,9.65
2023-05-14T18:49:44.084Z,9.52
2023-05-14T18:52:17.317Z,8.60
2023-05-14T18:54:55.228Z,8.52
2023-05-14T18:57:35.514Z,8.73
2023-05-14T19:00:28.486Z,8.82
2023-05-14T19:03:08.265Z,8.95
2023-05-14T19:06:12.034Z,8.88
2023-05-14T19:09:03.630Z,9.35
2023-05-14T19:11:32.943Z,9.30
2023-05-14T19:20:45.681Z,9.15
2023-05-14T19:26:16.143Z,8.85
2023-05-14T19:28:47.167Z,8.77
2023-05-14T19:31:17.327Z,9.30
2023-05-14T19:40:19.414Z,8.32
2023-05-14T19:43:02.656Z,9.38
2023-05-14T19:45:51.032Z,9.55
2023-05-14T19:48:28.204Z,9.73
2023-05-14T19:50:57.790Z,8.90
2023-05-14T19:53:31.703Z,9.07
2023-05-14T19:56:13.102Z,9.20
2023-05-14T19:58:48.215Z,8.38
2023-05-14T20:08:11.264Z,8.25
2023-05-14T20:35:12.795Z,9.30
2023-05-14T20:37:53.667Z,10.93
2023-05-14T20:51:43.121Z,6.90
2023-05-14T20:57:42.022Z,8.00
2023-05-14T21:00:30.955Z,8.07
2023-05-14T21:06:12.584Z,9.32
2023-05-14T21:21:33.487Z,10.20
2023-05-14T21:24:15.072Z,10.15
2023-05-14T21:30:05.659Z,9.73
2023-05-14T21:35:49.477Z,7.78
2023-05-14T21:38:34.321Z,8.23
2023-05-14T21:47:39.715Z,8.02
2023-05-14T21:50:12.255Z,8.27
2023-05-14T21:52:59.940Z,7.32
2023-05-14T21:55:52.702Z,7.20
2023-05-14T22:02:07.007Z,7.03
2023-05-14T22:20:32.422Z,6.97
2023-05-14T22:40:04.562Z,6.50
2023-05-14T22:46:08.803Z,7.13
2023-05-14T22:48:55.377Z,7.38
2023-05-14T22:51:26.458Z,7.22
2023-05-14T22:54:04.680Z,8.57
2023-05-14T22:56:42.943Z,7.85
2023-05-14T22:59:26.411Z,7.97
2023-05-14T23:02:06.974Z,7.85
2023-05-14T23:04:39.998Z,7.90
2023-05-14T23:07:21.547Z,8.35
2023-05-14T23:12:31.582Z,8.80
2023-05-14T23:15:01.545Z,10.15
2023-05-14T23:17:37.891Z,10.50
2023-05-14T23:20:08.259Z,13.23
2023-05-14T23:22:49.844Z,15.82
2023-05-14T23:28:01.485Z,15.07
2023-05-14T23:30:31.831Z,11.07
2023-05-14T23:33:11.680Z,10.25
2023-05-14T23:35:43.811Z,10.40
2023-05-14T23:38:13.082Z,9.23
2023-05-14T23:40:45.420Z,27.48
2023-05-14T23:43:18.676Z,18.60
2023-05-14T23:45:49.664Z,22.45
2023-05-14T23:48:34.168Z,13.77
2023-05-14T23:51:02.178Z,12.27
2023-05-14T23:53:37.502Z,12.85
2023-05-14T23:56:09.680Z,11.07
2023-05-14T23:58:46.048Z,12.10
